Time;durP1;ratioP1;P1;durP2;ratioP2;P2;SDS_P1;SDS_P2;PMS_P1;PMS_P2;Temp;Humidity;BMP_temperature;BMP_pressure;BME280_temperature;BME280_humidity;BME280_pressure;Samples;Min_cycle;Max_cycle;Signal;HPM_P1;HPM_P2
2023/06/20 00:01:01;;;;;;;5.35;2.72;;;23.50;62.70;;;;;;4979845;28;20130;-80
2023/06/20 00:03:27;;;;;;;3.05;1.90;;;23.50;62.50;;;;;;4979549;28;20069;-80
2023/06/20 00:05:53;;;;;;;4.07;1.95;;;23.50;62.30;;;;;;4978028;28;20062;-83
2023/06/20 00:08:19;;;;;;;3.05;2.30;;;23.50;62.00;;;;;;4973864;28;20030;-83
2023/06/20 00:10:46;;;;;;;2.75;2.33;;;23.50;61.80;;;;;;4980599;28;20601;-82
2023/06/20 00:13:12;;;;;;;3.05;2.20;;;23.40;61.40;;;;;;4986881;28;20149;-82
2023/06/20 00:15:44;;;;;;;4.25;1.90;;;23.40;61.20;;;;;;4994547;28;20398;-84
2023/06/20 00:18:11;;;;;;;6.65;2.88;;;23.40;61.10;;;;;;4973988;28;20335;-84
2023/06/20 00:20:40;;;;;;;3.80;2.15;;;23.30;60.80;;;;;;4988083;28;20037;-82
2023/06/20 00:23:07;;;;;;;3.55;2.60;;;23.30;60.60;;;;;;4981478;28;20034;-79
2023/06/20 00:25:33;;;;;;;3.40;2.60;;;23.20;60.40;;;;;;4994736;28;20022;-81
2023/06/20 00:27:59;;;;;;;2.80;2.40;;;23.20;60.30;;;;;;4980841;28;20140;-81
2023/06/20 00:30:25;;;;;;;4.18;2.53;;;23.10;60.00;;;;;;4978300;28;20100;-82
2023/06/20 00:32:51;;;;;;;4.30;2.30;;;23.10;60.00;;;;;;4975212;28;20110;-82
2023/06/20 00:35:23;;;;;;;3.60;2.60;;;23.10;59.90;;;;;;4982251;28;20057;-82
2023/06/20 00:37:52;;;;;;;5.43;2.35;;;23.10;59.90;;;;;;4983868;28;20030;-84
2023/06/20 00:40:18;;;;;;;2.35;2.00;;;23.00;59.60;;;;;;4984452;28;20058;-84
2023/06/20 00:42:45;;;;;;;4.32;2.63;;;22.90;59.30;;;;;;4984764;28;20544;-82
2023/06/20 00:45:32;;;;;;;3.75;2.63;;;22.90;59.30;;;;;;4980833;28;20030;-83
2023/06/20 00:48:00;;;;;;;5.43;2.65;;;22.90;59.30;;;;;;4981943;28;20053;-84
2023/06/20 00:50:29;;;;;;;3.15;2.25;;;22.80;59.00;;;;;;4968264;28;20042;-84
2023/06/20 00:53:01;;;;;;;4.00;2.72;;;22.80;59.60;;;;;;4982147;28;20498;-85
2023/06/20 00:55:31;;;;;;;3.22;2.72;;;22.70;58.80;;;;;;4977255;28;20038;-83
2023/06/20 00:57:59;;;;;;;4.75;2.65;;;22.70;58.80;;;;;;4975974;28;20049;-82
2023/06/20 01:00:33;;;;;;;3.45;2.25;;;22.70;58.80;;;;;;4983297;28;20034;-83
2023/06/20 01:03:06;;;;;;;4.32;2.95;;;22.60;58.60;;;;;;4979673;28;20721;-82
2023/06/20 01:06:20;;;;;;;4.82;3.05;;;22.60;58.60;;;;;;4979094;28;20038;-84
2023/06/20 01:09:15;;;;;;;5.22;2.58;;;22.50;58.40;;;;;;4976917;28;20062;-82
2023/06/20 01:12:08;;;;;;;4.35;2.72;;;22.50;58.40;;;;;;4992147;28;20038;-83
2023/06/20 01:14:53;;;;;;;3.70;2.80;;;22.50;58.40;;;;;;5005391;28;20059;-83
2023/06/20 01:17:31;;;;;;;3.85;3.17;;;22.40;58.20;;;;;;4984056;28;20458;-85
2023/06/20 01:20:12;;;;;;;4.15;2.83;;;22.40;58.80;;;;;;4982549;28;20076;-84
2023/06/20 01:22:56;;;;;;;3.42;2.53;;;22.30;58.10;;;;;;4985667;28;20038;-85
2023/06/20 01:25:31;;;;;;;3.47;2.70;;;22.30;58.20;;;;;;4999732;28;20030;-85
2023/06/20 01:28:25;;;;;;;3.63;2.83;;;22.30;58.20;;;;;;4986452;28;20105;-84
2023/06/20 01:31:10;;;;;;;3.83;2.95;;;22.20;58.00;;;;;;4983617;28;20073;-82
2023/06/20 01:34:03;;;;;;;3.63;2.53;;;22.20;58.00;;;;;;4982578;28;20042;-82
2023/06/20 01:36:36;;;;;;;5.63;3.17;;;22.20;58.10;;;;;;4980879;28;20358;-80
2023/06/20 01:39:08;;;;;;;3.53;2.58;;;22.10;57.90;;;;;;4984460;28;20026;-81
2023/06/20 01:41:37;;;;;;;3.67;2.67;;;22.10;57.90;;;;;;4988216;28;20038;-82
2023/06/20 01:44:06;;;;;;;3.25;2.53;;;22.10;58.00;;;;;;4982387;28;20400;-80
2023/06/20 01:46:33;;;;;;;4.05;3.13;;;22.00;57.80;;;;;;4982516;28;20053;-79
2023/06/20 01:49:02;;;;;;;3.00;2.10;;;22.00;57.80;;;;;;4985112;28;20098;-83
2023/06/20 01:51:30;;;;;;;6.72;2.45;;;22.00;58.00;;;;;;4987311;28;20034;-83
2023/06/20 01:54:03;;;;;;;4.53;3.00;;;22.00;57.90;;;;;;4986278;28;20030;-81
2023/06/20 01:56:40;;;;;;;3.25;2.53;;;22.00;58.00;;;;;;4982926;28;20026;-81
2023/06/20 01:59:09;;;;;;;4.82;2.83;;;22.00;58.00;;;;;;4985914;28;20105;-82
2023/06/20 02:01:36;;;;;;;4.82;2.55;;;21.90;57.80;;;;;;4979525;28;20675;-81
2023/06/20 02:04:03;;;;;;;4.35;2.90;;;21.90;57.90;;;;;;4985109;28;20038;-83
2023/06/20 02:06:31;;;;;;;3.35;2.88;;;21.90;57.90;;;;;;4987348;28;20587;-81
2023/06/20 02:08:58;;;;;;;3.15;2.85;;;21.90;58.60;;;;;;4985610;28;20046;-83
2023/06/20 02:11:27;;;;;;;4.40;2.72;;;21.90;58.10;;;;;;4987629;28;20038;-83
2023/06/20 02:13:57;;;;;;;4.80;3.13;;;21.80;57.90;;;;;;4988095;28;20137;-81
2023/06/20 02:16:25;;;;;;;3.33;2.38;;;21.80;58.00;;;;;;4988809;28;20593;-80
2023/06/20 02:18:51;;;;;;;3.25;2.92;;;21.80;58.10;;;;;;4978872;28;20037;-80
2023/06/20 02:21:22;;;;;;;5.90;2.70;;;21.70;57.90;;;;;;4987159;28;20052;-80
2023/06/20 02:23:51;;;;;;;3.85;2.50;;;21.80;58.20;;;;;;4981390;28;20410;-79
2023/06/20 02:26:26;;;;;;;3.45;2.65;;;21.70;58.10;;;;;;4985769;28;20553;-79
2023/06/20 02:31:50;;;;;;;4.90;3.20;;;21.70;58.30;;;;;;5061261;23;20265;-88
2023/06/20 02:34:22;;;;;;;5.30;3.10;;;21.70;58.70;;;;;;4846704;29;20315;-93
2023/06/20 02:36:50;;;;;;;2.97;2.60;;;21.60;58.30;;;;;;4845762;29;20269;-90
2023/06/20 02:39:19;;;;;;;3.75;3.40;;;21.60;58.40;;;;;;4857545;29;20047;-89
2023/06/20 02:41:46;;;;;;;3.35;2.92;;;21.60;58.50;;;;;;4857312;29;20045;-90
2023/06/20 02:44:13;;;;;;;4.35;2.97;;;21.60;58.60;;;;;;4854657;29;20029;-90
2023/06/20 02:47:00;;;;;;;3.42;2.75;;;21.50;58.50;;;;;;4854665;29;20190;-89
2023/06/20 02:49:47;;;;;;;3.63;2.97;;;21.50;58.70;;;;;;4845429;29;20042;-93
2023/06/20 02:52:39;;;;;;;5.55;3.17;;;21.40;58.60;;;;;;4850495;29;20040;-89
2023/06/20 02:55:29;;;;;;;4.43;3.10;;;21.40;58.70;;;;;;4857374;29;20509;-89
2023/06/20 02:58:00;;;;;;;4.60;3.20;;;21.40;58.80;;;;;;4885329;29;20052;-87
2023/06/20 03:00:27;;;;;;;4.05;2.95;;;21.40;58.70;;;;;;4854272;29;20033;-83
2023/06/20 03:03:00;;;;;;;4.43;2.67;;;21.30;58.70;;;;;;4863089;29;20049;-83
2023/06/20 03:05:30;;;;;;;3.60;2.70;;;21.30;59.50;;;;;;4850738;29;20033;-81
2023/06/20 03:07:58;;;;;;;5.63;4.03;;;21.30;60.20;;;;;;4854037;29;20052;-85
2023/06/20 03:10:27;;;;;;;6.28;3.20;;;21.40;60.90;;;;;;4854767;29;20042;-81
2023/06/20 03:12:56;;;;;;;4.85;3.28;;;21.40;61.20;;;;;;4850478;29;20385;-84
2023/06/20 03:15:22;;;;;;;5.57;3.25;;;21.40;61.70;;;;;;4853947;29;20042;-81
2023/06/20 03:17:49;;;;;;;4.18;3.33;;;21.40;61.90;;;;;;4853397;29;20038;-83
2023/06/20 03:20:15;;;;;;;4.38;3.67;;;21.40;62.10;;;;;;4854190;29;20085;-83
2023/06/20 03:22:41;;;;;;;4.15;3.50;;;21.50;62.50;;;;;;4854180;29;20037;-85
2023/06/20 03:25:09;;;;;;;7.80;3.22;;;21.50;62.80;;;;;;4856217;29;20068;-83
2023/06/20 03:27:38;;;;;;;4.28;3.25;;;21.50;62.90;;;;;;4855737;29;20033;-82
2023/06/20 03:30:05;;;;;;;4.70;3.38;;;21.50;63.00;;;;;;4855995;29;20069;-82
2023/06/20 03:32:36;;;;;;;6.78;3.90;;;21.60;63.40;;;;;;4852174;29;20129;-82
2023/06/20 03:35:04;;;;;;;5.45;3.70;;;21.50;63.30;;;;;;4854042;29;20045;-82
2023/06/20 03:37:32;;;;;;;5.88;3.90;;;21.50;63.40;;;;;;4852865;29;20521;-82
2023/06/20 03:40:03;;;;;;;6.05;3.78;;;21.50;63.50;;;;;;4853610;29;20072;-82
2023/06/20 03:42:31;;;;;;;6.30;4.38;;;21.50;63.60;;;;;;4856488;29;20104;-82
2023/06/20 03:45:05;;;;;;;5.13;3.90;;;21.50;63.70;;;;;;4858258;29;20109;-83
2023/06/20 03:47:31;;;;;;;;;;;21.50;63.80;;;;;;4854131;29;20089;-81
2023/06/20 03:50:01;;;;;;;5.85;4.25;;;21.50;63.60;;;;;;4856065;29;19920;-82
2023/06/20 03:52:27;;;;;;;6.63;4.68;;;21.50;63.50;;;;;;4853360;29;20068;-82
2023/06/20 03:54:54;;;;;;;6.80;4.50;;;21.50;63.70;;;;;;4853490;29;20070;-82
2023/06/20 03:57:21;;;;;;;4.78;4.28;;;21.50;63.90;;;;;;4853469;29;20166;-82
2023/06/20 03:59:47;;;;;;;6.05;3.95;;;21.50;64.00;;;;;;4854764;29;20489;-81
2023/06/20 04:02:14;;;;;;;5.70;3.53;;;21.40;64.00;;;;;;4851400;29;20033;-82
2023/06/20 04:04:40;;;;;;;5.03;3.45;;;21.40;64.10;;;;;;4855529;29;20560;-82
2023/06/20 04:07:08;;;;;;;5.97;3.17;;;21.40;64.20;;;;;;4852525;29;20030;-84
2023/06/20 04:09:36;;;;;;;8.48;4.57;;;21.40;64.40;;;;;;4858227;29;20482;-82
2023/06/20 04:12:22;;;;;;;5.68;4.50;;;21.40;64.50;;;;;;4809062;29;20127;-83
2023/06/20 04:14:48;;;;;;;6.25;3.67;;;21.40;64.60;;;;;;4847087;29;20061;-84
2023/06/20 04:17:14;;;;;;;5.47;4.43;;;21.40;64.80;;;;;;4859292;29;20060;-82
2023/06/20 04:19:40;;;;;;;6.95;4.75;;;21.40;64.80;;;;;;4858149;29;20029;-85
2023/06/20 04:22:08;;;;;;;8.50;4.03;;;21.40;65.00;;;;;;4860574;29;20037;-83
2023/06/20 04:24:34;;;;;;;4.40;3.38;;;21.40;65.10;;;;;;4861542;29;20045;-83
2023/06/20 04:27:02;;;;;;;5.63;3.97;;;21.40;65.20;;;;;;4857182;29;20485;-84
2023/06/20 04:29:31;;;;;;;7.78;4.18;;;21.40;65.30;;;;;;4865263;29;20041;-84
2023/06/20 04:31:57;;;;;;;8.82;3.90;;;21.40;65.30;;;;;;4862017;29;20409;-81
2023/06/20 04:34:26;;;;;;;6.15;4.93;;;21.40;65.50;;;;;;4853264;29;20076;-84
2023/06/20 04:36:53;;;;;;;5.20;3.50;;;21.40;65.50;;;;;;4857392;29;20556;-81
2023/06/20 04:39:19;;;;;;;5.00;4.03;;;21.40;65.60;;;;;;4861778;29;20060;-83
2023/06/20 04:41:46;;;;;;;7.38;4.40;;;21.30;65.50;;;;;;4859088;29;20089;-84
2023/06/20 04:44:13;;;;;;;5.75;4.05;;;21.40;66.30;;;;;;4859452;29;20037;-83
2023/06/20 04:46:39;;;;;;;5.78;4.00;;;21.40;65.80;;;;;;4858213;29;20068;-81
2023/06/20 04:49:05;;;;;;;5.78;3.45;;;21.30;65.80;;;;;;4858266;29;20053;-83
2023/06/20 04:51:31;;;;;;;5.30;3.65;;;21.40;66.10;;;;;;4824351;29;20038;-81
2023/06/20 04:53:58;;;;;;;4.28;3.85;;;21.30;66.00;;;;;;4867865;29;20050;-81
2023/06/20 04:56:24;;;;;;;5.28;4.25;;;21.30;66.10;;;;;;4854176;29;20393;-87
2023/06/20 04:58:50;;;;;;;6.70;3.78;;;21.30;66.30;;;;;;4855920;29;20045;-87
2023/06/20 05:01:19;;;;;;;8.40;4.47;;;21.30;66.40;;;;;;4850629;29;20041;-87
2023/06/20 05:03:46;;;;;;;4.82;3.58;;;21.30;66.50;;;;;;4852013;29;20044;-86
2023/06/20 05:06:19;;;;;;;4.25;3.22;;;21.30;66.50;;;;;;4862072;29;20038;-88
2023/06/20 05:08:46;;;;;;;5.22;3.47;;;21.40;66.70;;;;;;4854567;29;20049;-87
2023/06/20 05:11:15;;;;;;;4.07;3.45;;;21.30;66.60;;;;;;4854942;29;20190;-84
2023/06/20 05:13:41;;;;;;;5.10;3.65;;;21.30;66.60;;;;;;4853812;29;20133;-85
2023/06/20 05:16:07;;;;;;;4.13;3.45;;;21.30;66.70;;;;;;4868577;29;20037;-84
2023/06/20 05:18:34;;;;;;;5.38;3.50;;;21.30;66.80;;;;;;4875631;29;20033;-84
2023/06/20 05:21:00;;;;;;;6.03;4.43;;;21.20;66.70;;;;;;4875108;29;20915;-81
2023/06/20 05:23:27;;;;;;;4.55;3.97;;;21.20;66.70;;;;;;4875968;29;20037;-89
2023/06/20 05:25:55;;;;;;;6.57;3.85;;;21.20;66.80;;;;;;4863640;29;20128;-90
2023/06/20 05:28:21;;;;;;;3.58;2.85;;;21.20;66.90;;;;;;4856686;29;20049;-86
2023/06/20 05:30:47;;;;;;;3.97;3.20;;;21.20;66.90;;;;;;4851256;29;20034;-86
2023/06/20 05:33:13;;;;;;;4.13;3.08;;;21.20;66.90;;;;;;4840255;29;20045;-90
2023/06/20 05:35:41;;;;;;;3.53;3.00;;;21.20;66.90;;;;;;4855729;29;20037;-83
2023/06/20 05:38:07;;;;;;;4.78;3.92;;;21.20;66.90;;;;;;4849102;29;20043;-79
2023/06/20 05:40:33;;;;;;;3.85;2.88;;;21.20;66.90;;;;;;4847270;29;20513;-82
2023/06/20 05:43:19;;;;;;;4.43;3.05;;;21.20;67.10;;;;;;4802586;29;20380;-80
2023/06/20 05:45:46;;;;;;;6.22;3.00;;;21.20;67.80;;;;;;4850843;29;20041;-80
2023/06/20 05:48:12;;;;;;;6.07;3.00;;;21.20;67.30;;;;;;4844270;29;20045;-81
2023/06/20 05:50:38;;;;;;;3.92;2.80;;;21.20;67.20;;;;;;4846080;29;20045;-81
2023/06/20 05:53:08;;;;;;;4.38;2.92;;;21.20;67.10;;;;;;4847309;29;20383;-80
2023/06/20 05:55:34;;;;;;;4.65;3.03;;;21.20;66.90;;;;;;4848139;29;20525;-81
2023/06/20 05:58:03;;;;;;;4.43;2.80;;;21.20;66.80;;;;;;4843409;29;20104;-83
2023/06/20 06:00:29;;;;;;;5.32;2.92;;;21.20;66.70;;;;;;4844660;29;20124;-80
2023/06/20 06:02:56;;;;;;;4.28;2.75;;;21.20;66.60;;;;;;4845856;29;20045;-82
2023/06/20 06:05:22;;;;;;;2.83;2.20;;;21.20;66.60;;;;;;4846662;29;20452;-83
2023/06/20 06:07:48;;;;;;;4.57;2.80;;;21.20;66.40;;;;;;4845258;29;20049;-82
2023/06/20 06:10:20;;;;;;;5.25;3.22;;;21.10;66.20;;;;;;4844547;29;20034;-82
2023/06/20 06:12:47;;;;;;;6.15;2.85;;;21.20;66.30;;;;;;4846152;29;20034;-79
2023/06/20 06:15:13;;;;;;;6.10;3.13;;;21.20;66.20;;;;;;4846401;29;20074;-80
2023/06/20 06:17:39;;;;;;;5.43;3.28;;;21.20;66.10;;;;;;4845432;29;20041;-86
2023/06/20 06:20:10;;;;;;;5.00;2.80;;;21.30;66.20;;;;;;4847324;29;20059;-87
2023/06/20 06:22:36;;;;;;;6.45;2.80;;;21.30;66.10;;;;;;4852361;29;20101;-88
2023/06/20 06:25:02;;;;;;;4.53;2.92;;;21.30;66.00;;;;;;4852127;29;20556;-83
2023/06/20 06:27:31;;;;;;;3.85;2.83;;;21.30;65.90;;;;;;4844817;29;20120;-82
2023/06/20 06:29:57;;;;;;;4.45;2.53;;;21.30;65.90;;;;;;4840302;29;20037;-82
2023/06/20 06:32:23;;;;;;;5.93;3.17;;;21.30;65.80;;;;;;4843420;29;20363;-82
2023/06/20 06:34:50;;;;;;;4.93;3.30;;;21.40;65.90;;;;;;4826818;29;20037;-81
2023/06/20 06:37:16;;;;;;;7.57;3.50;;;21.40;65.80;;;;;;4846910;29;20393;-81
2023/06/20 06:39:42;;;;;;;3.58;2.60;;;21.50;65.80;;;;;;4846727;29;20417;-81
2023/06/20 06:42:11;;;;;;;3.92;2.60;;;21.50;65.60;;;;;;4846911;29;20120;-80
2023/06/20 06:44:38;;;;;;;3.92;2.65;;;21.60;65.60;;;;;;4845429;29;20045;-81
2023/06/20 06:47:04;;;;;;;4.03;3.33;;;21.60;65.40;;;;;;4843113;29;20105;-81
2023/06/20 06:49:31;;;;;;;5.13;2.92;;;21.60;65.30;;;;;;4841907;29;20041;-81
2023/06/20 06:51:57;;;;;;;4.18;2.80;;;21.70;65.30;;;;;;4841167;29;20037;-80
2023/06/20 06:54:23;;;;;;;5.35;2.85;;;21.70;65.10;;;;;;4842987;29;20050;-81
2023/06/20 06:56:49;;;;;;;3.60;2.70;;;21.70;65.00;;;;;;4843961;29;20450;-81
2023/06/20 06:59:16;;;;;;;6.07;3.20;;;21.70;64.90;;;;;;4841799;29;20101;-80
2023/06/20 07:01:47;;;;;;;3.20;2.30;;;21.70;64.80;;;;;;4837090;29;20057;-78
2023/06/20 07:04:14;;;;;;;3.75;2.63;;;21.80;64.80;;;;;;4842862;29;20219;-79
2023/06/20 07:06:41;;;;;;;4.07;2.25;;;21.80;64.70;;;;;;4838159;29;20042;-79
2023/06/20 07:09:09;;;;;;;4.22;3.05;;;21.80;64.50;;;;;;4847181;29;20049;-80
2023/06/20 07:11:39;;;;;;;3.15;2.85;;;21.80;64.40;;;;;;4849086;29;20068;-81
2023/06/20 07:14:05;;;;;;;3.22;2.45;;;21.90;64.50;;;;;;4845408;29;20101;-79
2023/06/20 07:16:32;;;;;;;3.13;2.20;;;21.90;64.40;;;;;;4845668;29;20041;-79
2023/06/20 07:18:59;;;;;;;2.97;2.47;;;21.90;64.20;;;;;;4840793;29;20140;-79
2023/06/20 07:32:48;;;;;;;2.55;2.35;;;22.00;63.80;;;;;;5092834;27;20936;-75
2023/06/20 07:35:14;;;;;;;3.58;2.47;;;22.40;64.10;;;;;;5081666;28;20059;-78
2023/06/20 07:37:41;;;;;;;2.45;1.70;;;22.50;63.80;;;;;;5075163;28;20032;-75
2023/06/20 07:40:07;;;;;;;3.00;2.20;;;22.60;63.60;;;;;;5080655;28;20039;-76
2023/06/20 07:42:36;;;;;;;2.83;2.50;;;22.70;63.40;;;;;;5074276;28;20047;-74
2023/06/20 07:45:08;;;;;;;2.67;2.42;;;22.80;63.20;;;;;;5076423;28;20040;-78
2023/06/20 07:47:34;;;;;;;3.65;2.78;;;22.90;63.10;;;;;;5063968;28;20715;-76
2023/06/20 07:50:00;;;;;;;2.28;1.90;;;23.00;63.00;;;;;;5075119;28;20135;-75
2023/06/20 07:52:27;;;;;;;2.85;1.88;;;23.00;62.70;;;;;;5079203;28;20040;-75
2023/06/20 07:54:55;;;;;;;2.53;2.13;;;23.10;62.70;;;;;;5105258;27;20421;-75
2023/06/20 07:57:21;;;;;;;3.72;2.20;;;23.20;62.60;;;;;;5073245;28;20382;-76
2023/06/20 07:59:48;;;;;;;2.55;1.98;;;23.30;62.50;;;;;;5088802;28;20040;-74
2023/06/20 08:02:17;;;;;;;2.78;2.00;;;23.50;62.60;;;;;;5072309;28;20317;-74
2023/06/20 08:04:43;;;;;;;3.08;1.80;;;23.50;62.30;;;;;;5075594;28;20370;-77
2023/06/20 08:07:18;;;;;;;3.03;2.10;;;23.70;62.40;;;;;;5070200;28;20044;-73
2023/06/20 08:09:44;;;;;;;2.67;2.00;;;23.80;62.30;;;;;;5072473;28;20027;-74
2023/06/20 08:12:11;;;;;;;1.98;1.77;;;23.90;62.30;;;;;;5075999;28;20032;-73
2023/06/20 08:14:40;;;;;;;2.05;1.65;;;24.00;62.20;;;;;;5075433;28;20544;-74
2023/06/20 08:17:06;;;;;;;3.45;2.17;;;24.10;62.10;;;;;;5074993;28;20044;-75
2023/06/20 08:19:32;;;;;;;3.35;1.73;;;24.20;62.00;;;;;;5078911;28;20024;-75
2023/06/20 08:21:58;;;;;;;2.33;1.90;;;24.40;62.00;;;;;;5070829;28;20992;-76
2023/06/20 08:24:28;;;;;;;3.60;2.50;;;24.50;61.90;;;;;;5067249;28;20029;-75
2023/06/20 08:26:57;;;;;;;2.50;1.70;;;24.60;61.80;;;;;;5066953;28;20313;-76
2023/06/20 08:29:23;;;;;;;3.13;2.30;;;24.80;61.80;;;;;;5068414;28;20114;-76
2023/06/20 08:31:49;;;;;;;2.33;2.13;;;25.00;61.90;;;;;;5050731;28;20052;-76
2023/06/20 08:34:18;;;;;;;2.55;1.88;;;25.10;61.60;;;;;;5054252;28;20032;-76
2023/06/20 08:36:54;;;;;;;2.50;2.20;;;25.20;61.30;;;;;;5054496;28;20033;-77
2023/06/20 08:39:23;;;;;;;2.33;2.10;;;25.40;61.00;;;;;;5050876;28;20036;-76
2023/06/20 08:41:52;;;;;;;4.88;2.15;;;25.70;60.70;;;;;;5050036;28;20086;-77
2023/06/20 08:44:23;;;;;;;2.42;2.17;;;25.90;60.40;;;;;;5056722;28;20524;-76
2023/06/20 08:46:54;;;;;;;2.22;2.03;;;26.10;60.00;;;;;;5052839;28;20045;-76
2023/06/20 08:49:20;;;;;;;2.38;2.00;;;26.30;59.70;;;;;;5056126;28;20117;-76
2023/06/20 08:51:49;;;;;;;1.90;1.75;;;26.60;59.30;;;;;;5056535;28;20044;-77
2023/06/20 08:54:19;;;;;;;3.33;2.08;;;26.80;58.80;;;;;;5053545;28;20040;-74
2023/06/20 08:56:47;;;;;;;1.80;1.50;;;27.00;58.50;;;;;;5047631;28;20064;-75
2023/06/20 08:59:14;;;;;;;1.88;1.60;;;27.10;58.20;;;;;;5051686;28;20029;-75
2023/06/20 09:01:42;;;;;;;2.55;2.05;;;27.30;57.90;;;;;;5056530;28;20560;-77
2023/06/20 09:04:10;;;;;;;2.75;1.80;;;27.40;57.50;;;;;;5055382;28;20074;-76
2023/06/20 09:06:39;;;;;;;2.35;1.80;;;27.40;57.30;;;;;;5059860;28;20043;-76
2023/06/20 09:09:18;;;;;;;2.22;1.55;;;27.50;57.20;;;;;;5054389;28;20043;-75
2023/06/20 09:11:58;;;;;;;2.65;1.90;;;27.70;57.00;;;;;;5053296;28;20072;-77
2023/06/20 09:14:29;;;;;;;2.25;1.83;;;27.90;56.60;;;;;;5055603;28;20037;-76
2023/06/20 09:17:00;;;;;;;4.22;1.95;;;28.20;56.10;;;;;;5052347;28;20517;-75
2023/06/20 09:19:43;;;;;;;1.85;1.60;;;28.50;55.60;;;;;;5048077;28;20500;-77
2023/06/20 09:22:16;;;;;;;4.82;1.73;;;28.60;55.10;;;;;;5055521;28;20049;-76
2023/06/20 09:24:44;;;;;;;2.35;1.80;;;28.80;54.90;;;;;;5048224;28;20408;-77
2023/06/20 09:27:11;;;;;;;1.70;1.33;;;28.90;54.50;;;;;;5049261;28;20048;-74
2023/06/20 09:29:52;;;;;;;2.58;1.90;;;28.90;54.20;;;;;;5049958;28;20040;-74
2023/06/20 09:32:21;;;;;;;;;;;28.80;54.00;;;;;;5053688;28;20057;-78
2023/06/20 09:34:49;;;;;;;1.92;1.75;;;28.80;54.40;;;;;;5051994;28;19920;-75
2023/06/20 09:37:17;;;;;;;2.42;1.63;;;28.80;54.40;;;;;;5047776;28;20375;-78
2023/06/20 09:39:46;;;;;;;3.33;1.77;;;28.80;54.20;;;;;;5045611;28;20033;-75
2023/06/20 09:42:14;;;;;;;2.65;1.63;;;28.80;54.10;;;;;;5048388;28;20082;-76
2023/06/20 09:44:41;;;;;;;3.42;2.00;;;28.70;53.90;;;;;;5047346;28;20039;-75
2023/06/20 09:47:10;;;;;;;2.28;1.75;;;28.80;53.90;;;;;;5046805;28;20124;-76
2023/06/20 09:49:40;;;;;;;3.08;1.80;;;28.90;53.80;;;;;;5053467;28;20471;-76
2023/06/20 09:52:14;;;;;;;1.88;1.60;;;29.00;53.50;;;;;;5049203;28;20056;-79
2023/06/20 09:55:03;;;;;;;2.15;1.52;;;29.20;53.30;;;;;;5044473;28;20029;-76
2023/06/20 09:57:43;;;;;;;2.47;1.88;;;29.40;52.60;;;;;;5071412;28;20044;-75
2023/06/20 10:00:14;;;;;;;2.05;1.85;;;29.60;52.40;;;;;;5054421;28;20033;-77
2023/06/20 10:02:45;;;;;;;4.25;2.25;;;29.70;52.10;;;;;;5049517;28;20042;-76
2023/06/20 10:05:16;;;;;;;2.65;2.00;;;29.70;52.00;;;;;;5048544;28;20041;-76
2023/06/20 10:07:48;;;;;;;2.35;1.88;;;29.70;52.00;;;;;;5071494;28;20032;-78
2023/06/20 10:10:16;;;;;;;3.00;1.90;;;29.70;52.00;;;;;;5054047;28;20032;-78
2023/06/20 10:12:46;;;;;;;2.88;2.50;;;29.90;51.80;;;;;;5059196;28;20040;-78
2023/06/20 10:15:19;;;;;;;2.33;2.08;;;30.10;51.50;;;;;;5057598;28;20063;-77
2023/06/20 10:17:46;;;;;;;2.42;2.22;;;30.40;51.30;;;;;;5054352;28;20041;-76
2023/06/20 10:20:37;;;;;;;2.15;1.88;;;30.60;50.90;;;;;;5054411;28;20043;-76
2023/06/20 10:23:05;;;;;;;1.92;1.75;;;30.90;50.20;;;;;;5051743;28;20546;-77
2023/06/20 10:25:32;;;;;;;3.28;1.60;;;31.10;49.80;;;;;;5036458;28;20119;-76
2023/06/20 10:28:05;;;;;;;2.80;1.90;;;31.30;49.60;;;;;;5046311;28;20033;-76
2023/06/20 10:30:46;;;;;;;2.42;1.85;;;31.30;49.40;;;;;;5058928;28;20174;-77
2023/06/20 10:33:13;;;;;;;2.33;1.77;;;31.60;49.10;;;;;;5054918;28;20132;-74
2023/06/20 10:36:00;;;;;;;3.63;2.00;;;31.70;48.70;;;;;;5056811;28;20133;-77
2023/06/20 10:38:28;;;;;;;2.97;2.08;;;31.80;48.40;;;;;;5053287;28;20382;-77
2023/06/20 10:41:20;;;;;;;2.28;1.73;;;31.90;48.50;;;;;;5056018;28;20163;-75
2023/06/20 10:43:56;;;;;;;3.63;1.98;;;31.90;48.10;;;;;;5056249;28;20516;-76
2023/06/20 10:46:34;;;;;;;1.70;1.60;;;31.80;48.40;;;;;;5054880;28;20028;-76
2023/06/20 10:49:02;;;;;;;1.85;1.70;;;31.60;48.40;;;;;;5050094;28;20036;-75
2023/06/20 10:51:29;;;;;;;2.05;1.60;;;31.50;48.50;;;;;;5059536;28;20051;-74
2023/06/20 10:54:14;;;;;;;1.92;1.73;;;31.60;48.40;;;;;;5054205;28;20124;-76
2023/06/20 10:56:49;;;;;;;2.08;1.75;;;31.80;48.00;;;;;;5054434;28;20039;-76
2023/06/20 10:59:24;;;;;;;2.05;1.65;;;32.00;47.80;;;;;;5052268;28;20397;-74
2023/06/20 11:02:00;;;;;;;2.78;1.50;;;32.20;47.60;;;;;;5044292;28;20652;-76
2023/06/20 11:04:26;;;;;;;1.50;1.30;;;32.40;47.50;;;;;;5041936;28;20029;-76
2023/06/20 11:06:56;;;;;;;2.95;1.60;;;32.50;47.10;;;;;;5044661;28;20033;-78
2023/06/20 11:09:25;;;;;;;2.60;1.52;;;32.80;47.00;;;;;;5040503;28;20124;-77
2023/06/20 11:11:54;;;;;;;1.50;1.40;;;33.10;46.70;;;;;;5043599;28;20052;-77
2023/06/20 11:14:24;;;;;;;2.80;1.80;;;33.40;46.30;;;;;;5046692;28;20434;-76
2023/06/20 11:17:00;;;;;;;1.40;1.30;;;33.40;46.10;;;;;;5045189;28;20056;-78
2023/06/20 11:19:38;;;;;;;1.80;1.70;;;33.30;46.20;;;;;;5052305;28;20078;-76
2023/06/20 11:22:08;;;;;;;2.33;1.60;;;33.20;46.50;;;;;;5047773;28;20025;-78
2023/06/20 11:24:36;;;;;;;1.83;1.42;;;33.30;46.20;;;;;;5035082;28;20091;-76
2023/06/20 11:27:14;;;;;;;1.60;1.30;;;33.60;46.10;;;;;;5046270;28;20025;-74
2023/06/20 11:29:47;;;;;;;1.25;1.15;;;33.90;45.70;;;;;;5055457;28;20393;-75
2023/06/20 11:32:14;;;;;;;2.90;1.60;;;34.10;45.60;;;;;;5052862;28;20544;-76
2023/06/20 11:35:03;;;;;;;2.90;1.50;;;34.30;45.20;;;;;;5040562;28;20163;-76
2023/06/20 11:37:32;;;;;;;1.88;1.35;;;34.60;44.90;;;;;;5053365;28;20842;-75
2023/06/20 11:40:14;;;;;;;2.03;1.40;;;34.80;44.70;;;;;;5044048;28;20492;-77
2023/06/20 11:42:40;;;;;;;;;;;35.00;44.30;;;;;;5035878;28;20136;-75
2023/06/20 11:45:09;;;;;;;2.20;1.67;;;35.30;44.30;;;;;;5045012;28;19934;-76
2023/06/20 11:47:45;;;;;;;1.48;1.38;;;35.40;44.10;;;;;;5056939;28;20436;-76
2023/06/20 11:50:23;;;;;;;1.73;1.40;;;35.60;43.90;;;;;;5052794;28;20417;-76
2023/06/20 11:52:57;;;;;;;1.40;1.30;;;35.70;43.70;;;;;;5049065;28;20028;-77
2023/06/20 11:55:49;;;;;;;1.58;1.33;;;35.80;43.40;;;;;;5056920;28;20119;-76
2023/06/20 11:58:43;;;;;;;1.27;1.13;;;35.80;43.10;;;;;;5049578;28;20293;-76
2023/06/20 12:01:22;;;;;;;1.50;1.40;;;35.80;43.20;;;;;;5045889;28;20547;-76
2023/06/20 12:04:06;;;;;;;1.35;1.25;;;35.90;43.20;;;;;;5051309;28;20099;-77
2023/06/20 12:06:42;;;;;;;3.13;1.35;;;36.00;42.90;;;;;;5054326;28;20192;-77
2023/06/20 12:09:17;;;;;;;2.78;1.70;;;35.90;42.90;;;;;;5044671;28;20044;-78
2023/06/20 12:12:00;;;;;;;1.58;1.38;;;35.90;43.00;;;;;;5055902;28;20106;-76
2023/06/20 12:14:26;;;;;;;1.17;1.08;;;36.00;43.00;;;;;;5047835;28;20033;-76
2023/06/20 12:16:52;;;;;;;1.50;1.40;;;36.10;42.80;;;;;;5053901;28;20393;-77
2023/06/20 12:19:20;;;;;;;1.40;1.10;;;36.30;42.50;;;;;;5056059;28;20093;-75
2023/06/20 12:21:46;;;;;;;1.67;1.35;;;36.40;42.30;;;;;;5059436;28;20748;-76
2023/06/20 12:24:12;;;;;;;1.25;1.15;;;36.60;42.30;;;;;;5050839;28;20520;-74
2023/06/20 12:26:39;;;;;;;1.23;1.13;;;36.80;42.10;;;;;;5057903;28;20048;-78
2023/06/20 12:29:08;;;;;;;1.23;1.05;;;36.90;41.90;;;;;;5051445;28;20025;-78
2023/06/20 12:31:34;;;;;;;2.70;1.38;;;36.80;41.90;;;;;;5057002;28;20139;-77
2023/06/20 12:34:01;;;;;;;1.48;1.33;;;36.60;42.00;;;;;;5059274;28;20348;-79
2023/06/20 12:36:27;;;;;;;1.33;1.23;;;36.30;42.30;;;;;;5056649;28;20093;-77
2023/06/20 12:38:53;;;;;;;1.23;1.00;;;36.20;42.50;;;;;;5059225;28;20098;-79
2023/06/20 12:41:20;;;;;;;1.92;1.52;;;36.30;42.50;;;;;;5052949;28;20451;-77
2023/06/20 12:43:46;;;;;;;1.33;1.23;;;36.40;42.30;;;;;;5057216;28;20361;-75
2023/06/20 12:46:12;;;;;;;2.40;1.25;;;36.60;42.80;;;;;;5047517;28;20415;-76
2023/06/20 12:48:38;;;;;;;1.30;1.20;;;36.80;42.00;;;;;;5058343;28;20024;-76
2023/06/20 12:51:04;;;;;;;1.20;0.95;;;36.90;41.80;;;;;;5060899;28;20399;-76
2023/06/20 12:53:30;;;;;;;1.23;1.13;;;37.10;41.70;;;;;;5052465;28;20098;-76
2023/06/20 12:55:57;;;;;;;1.50;1.10;;;37.20;41.50;;;;;;5058173;28;20618;-77
2023/06/20 12:58:23;;;;;;;2.22;1.38;;;37.30;41.30;;;;;;5053134;28;20029;-79
2023/06/20 13:00:51;;;;;;;1.38;1.27;;;37.50;41.20;;;;;;5058819;28;20029;-76
2023/06/20 13:03:17;;;;;;;2.85;1.30;;;37.70;41.10;;;;;;5056632;28;20074;-80
2023/06/20 13:05:43;;;;;;;1.98;1.55;;;37.90;41.00;;;;;;5059924;28;20111;-76
2023/06/20 13:08:13;;;;;;;4.00;1.35;;;37.90;40.80;;;;;;5057967;28;20390;-75
2023/06/20 13:10:45;;;;;;;1.10;1.00;;;38.00;40.70;;;;;;5060181;28;20033;-76
2023/06/20 13:13:14;;;;;;;1.92;1.60;;;38.20;40.70;;;;;;5038545;28;20116;-76
2023/06/20 13:15:43;;;;;;;1.10;1.00;;;38.30;40.60;;;;;;5048207;28;20583;-76
2023/06/20 13:18:09;;;;;;;1.75;1.20;;;38.40;40.50;;;;;;5056862;28;20047;-75